sensor_id;sensor_type;location;lat;lon;timestamp;temperature;humidity
3736;DHT22;1883;48.202;16.310;2022-11-20T01:00:15;1.30;39.30
3736;DHT22;1883;48.202;16.310;2022-11-20T01:02:43;1.40;39.30
3736;DHT22;1883;48.202;16.310;2022-11-20T01:05:11;1.40;39.90
3736;DHT22;1883;48.202;16.310;2022-11-20T01:38:46;1.50;39.90
3736;DHT22;1883;48.202;16.310;2022-11-20T01:41:16;1.50;40.20
3736;DHT22;1883;48.202;16.310;2022-11-20T01:43:57;1.50;40.20
3736;DHT22;1883;48.202;16.310;2022-11-20T02:20:14;1.80;42.80
3736;DHT22;1883;48.202;16.310;2022-11-20T02:22:48;1.90;43.20
3736;DHT22;1883;48.202;16.310;2022-11-20T02:25:19;2.00;43.30
3736;DHT22;1883;48.202;16.310;2022-11-20T02:27:47;2.00;43.70
3736;DHT22;1883;48.202;16.310;2022-11-20T02:30:14;2.00;43.80
3736;DHT22;1883;48.202;16.310;2022-11-20T02:32:41;1.90;44.00
3736;DHT22;1883;48.202;16.310;2022-11-20T02:35:35;2.10;44.00
3736;DHT22;1883;48.202;16.310;2022-11-20T02:37:59;2.00;44.50
3736;DHT22;1883;48.202;16.310;2022-11-20T02:40:29;2.00;44.90
3736;DHT22;1883;48.202;16.310;2022-11-20T03:16:36;1.90;47.20
3736;DHT22;1883;48.202;16.310;2022-11-20T03:19:07;1.90;47.20
3736;DHT22;1883;48.202;16.310;2022-11-20T03:21:35;1.90;47.30
3736;DHT22;1883;48.202;16.310;2022-11-20T03:24:05;1.80;47.40
3736;DHT22;1883;48.202;16.310;2022-11-20T03:26:32;1.90;47.60
3736;DHT22;1883;48.202;16.310;2022-11-20T03:29:03;1.80;47.70
3736;DHT22;1883;48.202;16.310;2022-11-20T03:31:33;1.90;47.60
3736;DHT22;1883;48.202;16.310;2022-11-20T03:52:05;1.60;45.90
3736;DHT22;1883;48.202;16.310;2022-11-20T03:54:35;1.60;45.90
3736;DHT22;1883;48.202;16.310;2022-11-20T03:57:02;1.70;46.40
3736;DHT22;1883;48.202;16.310;2022-11-20T04:02:04;1.70;46.20
3736;DHT22;1883;48.202;16.310;2022-11-20T04:04:32;1.80;46.30
3736;DHT22;1883;48.202;16.310;2022-11-20T04:07:04;1.80;46.70
3736;DHT22;1883;48.202;16.310;2022-11-20T04:09:31;1.80;46.70
3736;DHT22;1883;48.202;16.310;2022-11-20T04:12:00;1.70;46.60
3736;DHT22;1883;48.202;16.310;2022-11-20T04:14:30;1.60;46.20
3736;DHT22;1883;48.202;16.310;2022-11-20T04:16:57;1.60;46.10
3736;DHT22;1883;48.202;16.310;2022-11-20T04:19:24;1.50;45.70
3736;DHT22;1883;48.202;16.310;2022-11-20T04:21:52;1.50;45.70
3736;DHT22;1883;48.202;16.310;2022-11-20T04:24:20;1.60;45.40
3736;DHT22;1883;48.202;16.310;2022-11-20T04:26:47;1.70;45.30
3736;DHT22;1883;48.202;16.310;2022-11-20T04:29:14;1.70;45.50
3736;DHT22;1883;48.202;16.310;2022-11-20T04:31:41;1.70;45.80
3736;DHT22;1883;48.202;16.310;2022-11-20T04:34:11;1.60;45.70
3736;DHT22;1883;48.202;16.310;2022-11-20T04:36:38;1.70;45.80
3736;DHT22;1883;48.202;16.310;2022-11-20T04:39:12;1.70;46.00
3736;DHT22;1883;48.202;16.310;2022-11-20T04:41:42;1.70;46.40
3736;DHT22;1883;48.202;16.310;2022-11-20T04:44:09;1.80;46.40
3736;DHT22;1883;48.202;16.310;2022-11-20T04:46:38;1.60;46.80
3736;DHT22;1883;48.202;16.310;2022-11-20T04:49:06;1.40;47.00
3736;DHT22;1883;48.202;16.310;2022-11-20T04:51:34;1.60;46.50
3736;DHT22;1883;48.202;16.310;2022-11-20T04:54:01;1.70;47.00
3736;DHT22;1883;48.202;16.310;2022-11-20T04:56:28;1.70;47.10
3736;DHT22;1883;48.202;16.310;2022-11-20T04:59:00;1.70;47.10
